createdAt,value
2018-11-21T00:02:07.749Z,31.90
2018-11-21T00:04:38.319Z,32.50
2018-11-21T00:07:08.737Z,32.40
2018-11-21T00:09:39.077Z,33.20
2018-11-21T00:12:09.411Z,30.43
2018-11-21T00:14:39.993Z,32.37
2018-11-21T00:17:10.501Z,33.43
2018-11-21T00:19:40.931Z,33.60
2018-11-21T00:22:11.619Z,34.40
2018-11-21T00:24:42.061Z,32.23
2018-11-21T00:27:12.500Z,34.43
2018-11-21T00:29:42.909Z,35.33
2018-11-21T00:32:31.325Z,34.60
2018-11-21T00:35:01.756Z,34.83
2018-11-21T00:37:32.175Z,36.13
2018-11-21T00:40:02.753Z,34.07
2018-11-21T00:42:33.158Z,33.33
2018-11-21T00:45:03.732Z,33.53
2018-11-21T00:47:34.187Z,33.93
2018-11-21T00:50:05.459Z,33.07
2018-11-21T00:52:35.967Z,33.97
2018-11-21T00:55:07.429Z,33.60
2018-11-21T00:57:38.033Z,33.97
2018-11-21T01:00:11.351Z,33.50
2018-11-21T01:02:41.712Z,33.17
2018-11-21T01:05:12.124Z,31.90
2018-11-21T01:07:42.476Z,31.27
2018-11-21T01:10:13.189Z,31.80
2018-11-21T01:12:43.620Z,30.20
2018-11-21T01:15:14.053Z,33.40
2018-11-21T01:17:44.573Z,34.10
2018-11-21T01:20:15.516Z,32.43
2018-11-21T01:22:45.918Z,30.70
2018-11-21T01:25:16.401Z,33.77
2018-11-21T01:27:47.290Z,33.60
2018-11-21T01:30:17.695Z,34.10
2018-11-21T01:32:48.224Z,32.63
2018-11-21T01:35:18.531Z,33.53
2018-11-21T01:37:48.880Z,35.37
2018-11-21T01:40:19.223Z,33.57
2018-11-21T01:42:49.604Z,34.63
2018-11-21T01:45:19.982Z,36.03
2018-11-21T01:47:50.474Z,32.73
2018-11-21T01:50:20.851Z,33.53
2018-11-21T01:52:51.431Z,33.13
2018-11-21T01:55:21.814Z,34.13
2018-11-21T01:57:52.469Z,34.90
2018-11-21T02:00:22.850Z,34.30
2018-11-21T02:02:53.203Z,32.33
2018-11-21T02:05:23.672Z,33.37
2018-11-21T02:07:54.191Z,32.03
2018-11-21T02:10:24.615Z,31.17
2018-11-21T02:12:55.002Z,31.00
2018-11-21T02:15:25.345Z,31.63
2018-11-21T02:17:55.795Z,32.30
2018-11-21T02:20:26.240Z,32.37
2018-11-21T02:22:56.849Z,32.67
2018-11-21T02:25:29.736Z,30.47
2018-11-21T02:28:00.281Z,32.17
2018-11-21T02:30:30.799Z,32.57
2018-11-21T02:33:01.281Z,33.67
2018-11-21T02:35:31.744Z,33.83
2018-11-21T02:38:02.157Z,33.73
2018-11-21T02:40:32.658Z,34.30
2018-11-21T02:43:03.037Z,34.23
2018-11-21T02:45:33.575Z,33.70
2018-11-21T02:48:04.094Z,31.70
2018-11-21T02:50:34.523Z,32.70
2018-11-21T02:53:05.099Z,31.93
2018-11-21T02:55:35.568Z,30.43
2018-11-21T02:58:06.192Z,31.73
2018-11-21T03:00:36.651Z,32.87
2018-11-21T03:03:07.544Z,32.30
2018-11-21T03:05:37.885Z,31.83
2018-11-21T03:08:08.513Z,32.57
2018-11-21T03:10:38.846Z,32.97
2018-11-21T03:13:09.286Z,32.47
2018-11-21T03:15:39.899Z,32.47
2018-11-21T03:18:10.715Z,32.87
2018-11-21T03:20:41.269Z,33.80
2018-11-21T03:23:11.606Z,33.07
2018-11-21T03:25:42.112Z,31.47
2018-11-21T03:28:12.686Z,31.80
2018-11-21T03:30:43.104Z,31.33
2018-11-21T03:33:13.685Z,32.60
2018-11-21T03:35:44.990Z,31.63
2018-11-21T03:38:15.612Z,32.50
2018-11-21T03:40:46.003Z,33.27
2018-11-21T03:43:16.314Z,33.33
2018-11-21T03:45:46.758Z,34.47
2018-11-21T03:48:17.151Z,33.07
2018-11-21T03:50:47.499Z,31.53
2018-11-21T03:53:17.893Z,33.27
2018-11-21T03:55:48.230Z,32.70
2018-11-21T03:58:18.536Z,32.27
2018-11-21T04:00:48.882Z,30.47
2018-11-21T04:03:19.298Z,30.07
2018-11-21T04:05:49.705Z,31.33
2018-11-21T04:08:20.138Z,30.03
2018-11-21T04:10:50.537Z,31.10
2018-11-21T04:13:20.868Z,32.63
2018-11-21T04:15:51.551Z,33.10
2018-11-21T04:18:21.979Z,34.80
2018-11-21T04:20:52.365Z,32.20
2018-11-21T04:23:22.776Z,35.03
2018-11-21T04:25:53.118Z,35.50
2018-11-21T04:28:23.550Z,35.87
2018-11-21T04:30:54.031Z,35.33
2018-11-21T04:33:24.549Z,36.13
2018-11-21T04:35:54.899Z,32.57
2018-11-21T04:38:25.234Z,31.93
2018-11-21T04:40:55.591Z,32.83
2018-11-21T04:43:25.934Z,31.57
2018-11-21T04:45:56.443Z,30.33
2018-11-21T04:48:26.913Z,29.47
2018-11-21T04:50:57.312Z,30.43
2018-11-21T04:53:28.284Z,30.23
2018-11-21T04:55:58.694Z,34.27
2018-11-21T04:58:29.271Z,34.80
2018-11-21T05:00:59.752Z,36.07
2018-11-21T05:03:30.139Z,32.27
2018-11-21T05:06:00.575Z,32.73
2018-11-21T05:08:31.041Z,32.27
2018-11-21T05:11:01.523Z,33.97
2018-11-21T05:13:32.000Z,33.87
2018-11-21T05:16:02.567Z,34.80
2018-11-21T05:18:33.392Z,33.33
2018-11-21T05:21:04.449Z,52.40
2018-11-21T05:23:35.006Z,37.77
2018-11-21T05:26:05.795Z,36.40
2018-11-21T05:28:39.388Z,36.00
2018-11-21T05:31:09.794Z,30.77
2018-11-21T05:33:40.300Z,28.63
2018-11-21T05:36:11.451Z,27.60
2018-11-21T05:38:41.867Z,30.07
2018-11-21T05:41:12.190Z,29.60
2018-11-21T05:43:42.628Z,33.50
2018-11-21T05:46:13.597Z,30.20
2018-11-21T05:48:44.159Z,30.00
2018-11-21T05:51:14.607Z,30.13
2018-11-21T05:53:45.009Z,29.00
2018-11-21T05:56:15.531Z,28.50
2018-11-21T05:58:46.014Z,26.70
2018-11-21T06:01:16.585Z,28.20
2018-11-21T06:03:46.965Z,30.13
2018-11-21T06:06:17.761Z,28.97
2018-11-21T06:08:48.216Z,28.77
2018-11-21T06:11:18.732Z,26.67
2018-11-21T06:13:49.147Z,27.00
2018-11-21T06:16:19.939Z,28.00
2018-11-21T06:18:50.435Z,26.93
2018-11-21T06:21:20.865Z,28.60
2018-11-21T06:23:51.397Z,26.83
2018-11-21T06:26:21.862Z,28.57
2018-11-21T06:28:52.432Z,28.67
2018-11-21T06:31:22.938Z,28.03
2018-11-21T06:33:53.589Z,25.87
2018-11-21T06:36:24.110Z,24.80
2018-11-21T06:38:54.764Z,25.47
2018-11-21T06:41:25.158Z,25.60
2018-11-21T06:43:55.682Z,26.57
2018-11-21T06:46:26.659Z,32.63
2018-11-21T06:48:57.132Z,26.37
2018-11-21T06:51:27.496Z,27.23
2018-11-21T06:53:58.216Z,26.43
2018-11-21T06:56:28.783Z,27.40
2018-11-21T06:59:01.604Z,25.07
2018-11-21T07:01:32.388Z,26.20
2018-11-21T07:04:03.590Z,27.20
2018-11-21T07:06:34.185Z,27.30
2018-11-21T07:09:09.411Z,26.23
2018-11-21T07:11:40.132Z,26.07
2018-11-21T07:14:10.776Z,23.67
2018-11-21T07:16:41.646Z,26.77
2018-11-21T07:19:12.296Z,25.33
2018-11-21T07:21:42.658Z,29.10
2018-11-21T07:24:13.375Z,35.40
2018-11-21T07:26:43.706Z,41.03
2018-11-21T07:29:14.278Z,29.43
2018-11-21T07:31:44.696Z,29.87
2018-11-21T07:34:15.322Z,31.00
2018-11-21T07:36:50.297Z,57.27
2018-11-21T07:39:20.998Z,41.60
2018-11-21T07:41:51.395Z,42.53
2018-11-21T07:44:21.825Z,45.47
2018-11-21T07:46:52.389Z,43.27
2018-11-21T07:49:22.774Z,34.10
2018-11-21T07:53:18.193Z,30.97
2018-11-21T07:55:50.084Z,40.80
2018-11-21T07:58:22.291Z,34.87
2018-11-21T08:01:20.270Z,35.00
2018-11-21T08:03:52.419Z,29.87
2018-11-21T08:06:44.144Z,27.17
2018-11-21T08:09:45.840Z,24.27
2018-11-21T08:12:35.289Z,19.97
2018-11-21T08:15:20.225Z,19.67
2018-11-21T08:18:12.354Z,21.17
2018-11-21T08:21:07.623Z,20.67
2018-11-21T08:23:55.931Z,22.23
2018-11-21T08:26:36.525Z,23.03
2018-11-21T08:29:07.087Z,21.63
2018-11-21T08:31:37.500Z,20.83
2018-11-21T08:34:08.294Z,40.30
2018-11-21T08:36:38.739Z,23.53
2018-11-21T08:39:10.425Z,24.73
2018-11-21T08:41:40.937Z,29.00
2018-11-21T08:44:11.944Z,25.93
2018-11-21T08:46:42.406Z,23.03
2018-11-21T08:49:12.787Z,24.00
2018-11-21T08:51:43.221Z,22.73
2018-11-21T08:54:14.076Z,27.23
2018-11-21T08:56:44.508Z,24.53
2018-11-21T08:59:15.491Z,22.87
2018-11-21T09:01:46.074Z,22.50
2018-11-21T09:04:16.436Z,21.67
2018-11-21T09:06:46.836Z,20.67
2018-11-21T09:09:17.274Z,21.93
2018-11-21T09:11:47.820Z,20.47
2018-11-21T09:14:21.095Z,19.47
2018-11-21T09:16:48.589Z,21.07
2018-11-21T09:19:18.941Z,22.40
2018-11-21T09:21:49.478Z,22.47
2018-11-21T09:24:19.959Z,21.43
2018-11-21T09:26:50.469Z,22.47
2018-11-21T09:29:21.097Z,22.10
2018-11-21T09:31:51.653Z,22.63
2018-11-21T09:34:22.018Z,22.50
2018-11-21T09:36:52.440Z,23.57
2018-11-21T09:39:22.859Z,23.27
2018-11-21T09:41:53.274Z,22.97
2018-11-21T09:44:24.564Z,22.50
2018-11-21T09:46:55.267Z,23.50
2018-11-21T09:49:25.742Z,22.60
2018-11-21T09:51:56.180Z,22.50
2018-11-21T09:54:26.684Z,24.07
2018-11-21T09:56:57.092Z,23.33
2018-11-21T09:59:27.776Z,23.70
2018-11-21T10:02:53.223Z,21.70
2018-11-21T10:05:24.210Z,22.57
2018-11-21T10:08:23.359Z,23.67
2018-11-21T10:10:53.950Z,23.63
2018-11-21T10:13:24.530Z,22.53
2018-11-21T10:15:56.525Z,23.47
2018-11-21T10:18:27.030Z,22.90
2018-11-21T10:20:57.044Z,23.63
2018-11-21T10:23:27.591Z,22.67
2018-11-21T10:25:58.237Z,23.60
2018-11-21T10:28:32.622Z,23.27
2018-11-21T10:31:03.221Z,24.37
2018-11-21T10:33:34.063Z,23.03
2018-11-21T10:36:04.933Z,22.43
2018-11-21T10:38:35.460Z,22.33
2018-11-21T10:41:06.253Z,22.37
2018-11-21T10:43:37.264Z,22.87
2018-11-21T10:46:08.136Z,23.27
2018-11-21T10:48:38.656Z,22.43
2018-11-21T10:51:09.475Z,23.80
2018-11-21T10:53:39.945Z,24.40
2018-11-21T10:56:10.870Z,22.87
2018-11-21T10:58:41.294Z,23.00
2018-11-21T11:01:23.416Z,22.43
2018-11-21T11:03:59.418Z,22.80
2018-11-21T11:06:54.888Z,22.50
2018-11-21T11:09:42.605Z,21.37
2018-11-21T11:12:31.321Z,23.33
2018-11-21T11:15:19.790Z,21.03
2018-11-21T11:18:07.965Z,22.10
2018-11-21T11:20:55.989Z,23.03
2018-11-21T11:23:54.501Z,23.57
2018-11-21T11:26:44.313Z,24.27
2018-11-21T11:29:38.288Z,23.80
2018-11-21T11:32:26.792Z,24.00
2018-11-21T11:35:14.623Z,23.67
2018-11-21T11:38:04.093Z,22.73
2018-11-21T11:40:52.115Z,22.50
2018-11-21T11:43:56.858Z,21.77
2018-11-21T11:47:01.572Z,23.73
2018-11-21T11:49:49.816Z,21.60
2018-11-21T11:52:45.142Z,21.97
2018-11-21T11:55:28.466Z,22.50
2018-11-21T11:58:17.559Z,21.87
2018-11-21T12:01:09.730Z,22.00
2018-11-21T12:04:02.471Z,20.17
2018-11-21T12:06:51.528Z,20.07
2018-11-21T12:09:34.105Z,19.30
2018-11-21T12:12:29.909Z,18.87
2018-11-21T12:15:27.985Z,19.50
2018-11-21T12:18:16.599Z,20.90
2018-11-21T12:21:03.512Z,20.43
2018-11-21T12:23:52.864Z,19.70
2018-11-21T12:26:41.259Z,20.40
2018-11-21T12:29:35.746Z,20.93
2018-11-21T12:32:31.170Z,20.70
2018-11-21T12:35:18.855Z,22.57
2018-11-21T12:38:14.675Z,21.77
2018-11-21T12:40:56.620Z,20.73
2018-11-21T12:43:44.634Z,21.03
2018-11-21T12:46:34.547Z,21.53
2018-11-21T12:49:32.925Z,21.07
2018-11-21T12:52:28.219Z,20.80
2018-11-21T12:55:20.653Z,18.87
2018-11-21T12:58:28.988Z,20.50
2018-11-21T13:01:18.760Z,19.97
2018-11-21T13:04:05.567Z,21.00
2018-11-21T13:06:55.033Z,19.83
2018-11-21T13:09:43.129Z,19.07
2018-11-21T13:12:39.506Z,19.57
2018-11-21T13:15:32.058Z,19.90
2018-11-21T13:18:22.473Z,20.63
2018-11-21T13:21:19.010Z,19.30
2018-11-21T13:24:11.443Z,20.27
2018-11-21T13:27:03.861Z,20.83
2018-11-21T13:30:05.330Z,20.47
2018-11-21T13:33:09.871Z,18.03
2018-11-21T13:35:59.450Z,20.33
2018-11-21T13:39:03.737Z,20.30
2018-11-21T13:42:01.793Z,19.60
2018-11-21T13:45:03.417Z,21.00
2018-11-21T13:47:55.549Z,19.47
2018-11-21T13:50:43.483Z,20.57
2018-11-21T13:53:31.799Z,20.50
2018-11-21T13:56:02.348Z,19.37
2018-11-21T13:58:33.066Z,20.17
2018-11-21T14:01:03.531Z,20.63
2018-11-21T14:03:34.016Z,19.13
2018-11-21T14:06:05.859Z,20.93
2018-11-21T14:08:36.321Z,19.53
2018-11-21T14:11:07.248Z,19.60
2018-11-21T14:13:37.750Z,19.60
2018-11-21T14:16:11.076Z,20.37
2018-11-21T14:18:41.601Z,19.50
2018-11-21T14:21:12.025Z,21.03
2018-11-21T14:23:42.408Z,19.80
2018-11-21T14:26:13.206Z,20.40
2018-11-21T14:28:43.616Z,20.33
2018-11-21T14:31:14.099Z,21.23
2018-11-21T14:33:45.462Z,21.03
2018-11-21T14:36:15.959Z,21.30
2018-11-21T14:38:46.449Z,20.63
2018-11-21T14:41:20.069Z,20.63
2018-11-21T14:43:50.471Z,21.80
2018-11-21T14:46:20.899Z,20.07
2018-11-21T14:48:51.421Z,21.27
2018-11-21T14:51:21.867Z,21.90
2018-11-21T14:53:52.360Z,22.20
2018-11-21T14:56:22.888Z,24.63
2018-11-21T14:58:53.393Z,24.97
2018-11-21T15:01:23.835Z,24.03
2018-11-21T15:03:54.287Z,23.80
2018-11-21T15:06:24.822Z,24.07
2018-11-21T15:08:55.300Z,23.33
2018-11-21T15:11:26.149Z,24.50
2018-11-21T15:13:56.575Z,25.10
2018-11-21T15:16:27.118Z,24.77
2018-11-21T15:18:57.665Z,26.43
2018-11-21T15:21:28.036Z,26.33
2018-11-21T15:24:01.690Z,26.57
2018-11-21T15:26:32.406Z,27.27
2018-11-21T15:29:02.943Z,27.20
2018-11-21T15:31:33.418Z,27.73
2018-11-21T15:34:03.917Z,28.77
2018-11-21T15:36:34.373Z,28.60
2018-11-21T15:39:07.331Z,29.37
2018-11-21T15:41:37.959Z,29.23
2018-11-21T15:44:08.684Z,28.50
2018-11-21T15:46:45.425Z,27.90
2018-11-21T15:49:09.509Z,28.67
2018-11-21T15:51:40.488Z,28.17
2018-11-21T15:54:11.596Z,26.73
2018-11-21T15:56:42.084Z,27.53
2018-11-21T15:59:12.767Z,29.13
2018-11-21T16:01:43.188Z,28.53
2018-11-21T16:04:14.076Z,27.27
2018-11-21T16:06:44.546Z,28.67
2018-11-21T16:09:15.069Z,26.90
2018-11-21T16:11:45.502Z,28.10
2018-11-21T16:14:19.095Z,27.43
2018-11-21T16:16:49.950Z,27.60
2018-11-21T16:19:20.576Z,29.37
2018-11-21T16:21:50.912Z,27.03
2018-11-21T16:24:21.498Z,28.30
2018-11-21T16:26:51.963Z,27.00
2018-11-21T16:29:22.777Z,27.87
2018-11-21T16:31:53.324Z,28.80
2018-11-21T16:34:23.962Z,28.07
2018-11-21T16:36:54.421Z,26.50
2018-11-21T16:39:24.814Z,27.90
2018-11-21T16:41:55.209Z,29.17
2018-11-21T16:44:25.769Z,27.30
2018-11-21T16:46:56.502Z,28.20
2018-11-21T16:49:30.122Z,28.37
2018-11-21T16:52:00.511Z,28.57
2018-11-21T16:54:30.989Z,27.50
2018-11-21T16:57:01.370Z,27.73
2018-11-21T16:59:31.916Z,27.23
2018-11-21T17:02:02.382Z,27.67
2018-11-21T17:04:32.860Z,29.17
2018-11-21T17:07:03.286Z,29.33
2018-11-21T17:09:44.027Z,29.20
2018-11-21T17:12:15.841Z,29.03
2018-11-21T17:14:46.133Z,27.73
2018-11-21T17:17:16.675Z,29.07
2018-11-21T17:19:47.079Z,28.97
2018-11-21T17:22:17.822Z,29.07
2018-11-21T17:24:48.244Z,28.87
2018-11-21T17:27:18.568Z,29.07
2018-11-21T17:29:53.845Z,30.87
2018-11-21T17:32:19.469Z,28.20
2018-11-21T17:34:50.097Z,29.93
2018-11-21T17:37:20.672Z,29.27
2018-11-21T17:39:50.985Z,29.93
2018-11-21T17:42:21.488Z,28.90
2018-11-21T17:44:51.993Z,29.33
2018-11-21T17:47:22.392Z,30.17
2018-11-21T17:49:53.047Z,31.80
2018-11-21T17:52:26.085Z,30.73
2018-11-21T17:54:54.086Z,31.97
2018-11-21T17:57:27.959Z,31.00
2018-11-21T17:59:55.322Z,31.37
2018-11-21T18:02:25.967Z,33.57
2018-11-21T18:04:56.503Z,30.07
2018-11-21T18:07:27.056Z,31.13
2018-11-21T18:09:57.947Z,31.43
2018-11-21T18:12:28.401Z,32.43
2018-11-21T18:14:58.939Z,32.07
2018-11-21T18:17:29.334Z,32.47
2018-11-21T18:19:59.925Z,34.47
2018-11-21T18:22:30.543Z,35.80
2018-11-21T18:25:03.703Z,36.00
2018-11-21T18:27:34.352Z,36.43
2018-11-21T18:30:08.857Z,35.60
2018-11-21T18:32:39.490Z,35.73
2018-11-21T18:35:12.108Z,34.40
2018-11-21T18:37:45.251Z,34.63
2018-11-21T18:40:18.140Z,36.77
2018-11-21T18:42:48.483Z,37.23
2018-11-21T18:45:25.247Z,37.70
2018-11-21T18:47:55.772Z,37.60
2018-11-21T18:50:26.524Z,37.70
2018-11-21T18:52:58.185Z,36.73
2018-11-21T18:55:32.041Z,35.57
2018-11-21T18:58:59.535Z,36.67
2018-11-21T19:01:29.928Z,36.37
2018-11-21T19:04:00.379Z,36.27
2018-11-21T19:06:30.896Z,39.27
2018-11-21T19:09:01.627Z,38.17
2018-11-21T19:11:32.033Z,38.73
2018-11-21T19:14:02.629Z,37.10
2018-11-21T19:16:33.057Z,38.23
2018-11-21T19:19:03.619Z,36.83
2018-11-21T19:21:35.988Z,36.80
2018-11-21T19:24:06.603Z,37.63
2018-11-21T19:26:37.069Z,37.67
2018-11-21T19:29:08.033Z,38.77
2018-11-21T19:31:38.614Z,39.00
2018-11-21T19:34:09.450Z,41.07
2018-11-21T19:36:40.009Z,38.37
2018-11-21T19:39:15.702Z,38.50
2018-11-21T19:41:46.539Z,37.70
2018-11-21T19:44:16.989Z,37.93
2018-11-21T19:46:47.620Z,37.13
2018-11-21T19:49:18.223Z,36.20
2018-11-21T19:51:48.763Z,37.27
2018-11-21T19:54:19.542Z,36.50
2018-11-21T19:56:50.078Z,38.47
2018-11-21T19:59:20.596Z,39.40
2018-11-21T20:01:51.438Z,37.57
2018-11-21T20:04:21.959Z,37.70
2018-11-21T20:06:52.361Z,37.30
2018-11-21T20:09:23.075Z,35.70
2018-11-21T20:11:53.527Z,38.53
2018-11-21T20:14:24.117Z,36.47
2018-11-21T20:16:54.706Z,38.70
2018-11-21T20:19:25.286Z,37.77
2018-11-21T20:21:56.759Z,39.47
2018-11-21T20:24:27.286Z,37.23
2018-11-21T20:27:00.272Z,42.00
2018-11-21T20:29:30.767Z,37.73
2018-11-21T20:32:01.329Z,36.30
2018-11-21T20:34:34.252Z,37.07
2018-11-21T20:37:04.665Z,36.63
2018-11-21T20:39:35.129Z,43.33
2018-11-21T20:42:05.754Z,38.97
2018-11-21T20:44:36.449Z,36.87
2018-11-21T20:47:07.575Z,37.67
2018-11-21T20:49:38.132Z,41.00
2018-11-21T20:52:09.527Z,39.43
2018-11-21T20:54:40.303Z,38.77
2018-11-21T20:57:10.788Z,39.10
2018-11-21T20:59:41.181Z,38.40
2018-11-21T21:02:12.408Z,37.00
2018-11-21T21:04:42.949Z,36.87
2018-11-21T21:07:13.586Z,37.83
2018-11-21T21:09:44.087Z,36.37
2018-11-21T21:12:15.152Z,35.07
2018-11-21T21:14:45.565Z,36.73
2018-11-21T21:17:15.960Z,35.73
2018-11-21T21:19:49.361Z,34.53
2018-11-21T21:22:20.902Z,39.10
2018-11-21T21:24:51.359Z,39.23
2018-11-21T21:27:21.809Z,40.07
2018-11-21T21:29:58.002Z,40.20
2018-11-21T21:32:28.454Z,40.07
2018-11-21T21:34:58.948Z,41.33
2018-11-21T21:37:29.460Z,40.03
2018-11-21T21:39:59.845Z,41.33
2018-11-21T21:42:30.447Z,41.97
2018-11-21T21:45:00.868Z,40.33
2018-11-21T21:47:31.337Z,40.60
2018-11-21T21:50:03.781Z,41.80
2018-11-21T21:52:34.336Z,45.57
2018-11-21T21:55:05.189Z,42.50
2018-11-21T21:57:35.609Z,42.37
2018-11-21T22:00:32.119Z,41.87
2018-11-21T22:03:03.183Z,42.30
2018-11-21T22:05:33.999Z,45.30
2018-11-21T22:08:04.545Z,44.67
2018-11-21T22:10:35.050Z,46.33
2018-11-21T22:13:05.591Z,44.97
2018-11-21T22:15:37.581Z,43.43
2018-11-21T22:18:13.668Z,44.30
2018-11-21T22:20:44.041Z,43.53
2018-11-21T22:23:14.631Z,42.47
2018-11-21T22:25:45.099Z,41.50
2018-11-21T22:28:15.834Z,41.60
2018-11-21T22:30:46.258Z,41.73
2018-11-21T22:33:16.682Z,39.43
2018-11-21T22:35:47.127Z,41.57
2018-11-21T22:38:17.701Z,39.87
2018-11-21T22:40:48.170Z,43.50
2018-11-21T22:43:18.677Z,43.13
2018-11-21T22:45:49.135Z,44.67
2018-11-21T22:48:19.632Z,43.47
2018-11-21T22:50:53.154Z,42.90
2018-11-21T22:53:23.636Z,42.40
2018-11-21T22:55:54.106Z,42.23
2018-11-21T22:58:24.842Z,44.13
2018-11-21T23:00:55.467Z,43.23
2018-11-21T23:03:25.879Z,41.37
2018-11-21T23:05:56.434Z,38.63
2018-11-21T23:08:26.850Z,41.57
2018-11-21T23:17:00.077Z,41.77
2018-11-21T23:19:30.453Z,37.83
2018-11-21T23:22:00.930Z,37.53
2018-11-21T23:24:31.509Z,37.43
2018-11-21T23:27:01.988Z,37.23
2018-11-21T23:29:32.445Z,36.10
2018-11-21T23:32:02.871Z,35.43
2018-11-21T23:34:33.354Z,35.13
2018-11-21T23:37:03.778Z,40.63
2018-11-21T23:39:34.162Z,39.13
2018-11-21T23:42:04.652Z,39.30
2018-11-21T23:44:35.030Z,37.37
2018-11-21T23:47:05.826Z,42.73
2018-11-21T23:49:36.233Z,45.50
2018-11-21T23:52:06.898Z,46.33
2018-11-21T23:54:37.259Z,51.87
2018-11-21T23:57:16.105Z,45.03
2018-11-21T23:59:41.221Z,51.37
